sensor_id;sensor_type;location;lat;lon;timestamp;pressure;altitude;pressure_sealevel;temperature;humidity
48622;BME280;34421;48.944;9.460;2022-11-27T00:00:56;99775.34;;;4.00;72.65
48622;BME280;34421;48.944;9.460;2022-11-27T00:03:21;99777.44;;;3.97;72.35
48622;BME280;34421;48.944;9.460;2022-11-27T00:05:55;99775.34;;;3.91;72.35
48622;BME280;34421;48.944;9.460;2022-11-27T00:08:21;99769.63;;;3.85;73.04
48622;BME280;34421;48.944;9.460;2022-11-27T00:10:47;99765.63;;;3.81;72.13
48622;BME280;34421;48.944;9.460;2022-11-27T00:13:12;99760.63;;;3.78;72.34
48622;BME280;34421;48.944;9.460;2022-11-27T00:15:38;99752.00;;;3.76;72.70
48622;BME280;34421;48.944;9.460;2022-11-27T00:18:03;99751.44;;;3.73;72.10
48622;BME280;34421;48.944;9.460;2022-11-27T00:20:28;99745.63;;;3.69;72.44
48622;BME280;34421;48.944;9.460;2022-11-27T00:22:54;99751.16;;;3.66;73.83
48622;BME280;34421;48.944;9.460;2022-11-27T00:25:19;99749.75;;;3.62;72.90
48622;BME280;34421;48.944;9.460;2022-11-27T00:27:44;99747.25;;;3.60;72.78
48622;BME280;34421;48.944;9.460;2022-11-27T00:30:11;99745.56;;;3.59;73.58
48622;BME280;34421;48.944;9.460;2022-11-27T00:32:36;99746.28;;;3.61;72.44
48622;BME280;34421;48.944;9.460;2022-11-27T00:35:02;99739.91;;;3.64;72.37
48622;BME280;34421;48.944;9.460;2022-11-27T00:37:27;99740.91;;;3.63;72.61
48622;BME280;34421;48.944;9.460;2022-11-27T00:39:53;99740.91;;;3.63;73.80
48622;BME280;34421;48.944;9.460;2022-11-27T00:42:18;99739.47;;;3.59;72.39
48622;BME280;34421;48.944;9.460;2022-11-27T00:44:43;99735.59;;;3.53;72.32
48622;BME280;34421;48.944;9.460;2022-11-27T00:47:08;99734.91;;;3.51;73.42
48622;BME280;34421;48.944;9.460;2022-11-27T00:49:34;99728.38;;;3.46;72.59
48622;BME280;34421;48.944;9.460;2022-11-27T00:51:59;99721.69;;;3.41;72.45
48622;BME280;34421;48.944;9.460;2022-11-27T00:54:24;99720.75;;;3.42;73.19
48622;BME280;34421;48.944;9.460;2022-11-27T00:56:50;99718.66;;;3.46;72.73
48622;BME280;34421;48.944;9.460;2022-11-27T00:59:15;99709.66;;;3.49;73.47
48622;BME280;34421;48.944;9.460;2022-11-27T01:01:41;99708.41;;;3.53;73.68
48622;BME280;34421;48.944;9.460;2022-11-27T01:04:10;99701.50;;;3.52;72.05
48622;BME280;34421;48.944;9.460;2022-11-27T01:06:36;99698.72;;;3.53;72.44
48622;BME280;34421;48.944;9.460;2022-11-27T01:09:03;99697.88;;;3.53;72.80
48622;BME280;34421;48.944;9.460;2022-11-27T01:11:31;99695.69;;;3.48;73.73
48622;BME280;34421;48.944;9.460;2022-11-27T01:13:59;99689.56;;;3.48;73.91
48622;BME280;34421;48.944;9.460;2022-11-27T01:16:26;99689.81;;;3.45;73.49
48622;BME280;34421;48.944;9.460;2022-11-27T01:18:54;99690.91;;;3.42;72.57
48622;BME280;34421;48.944;9.460;2022-11-27T01:21:20;99681.53;;;3.39;73.54
48622;BME280;34421;48.944;9.460;2022-11-27T01:23:46;99680.81;;;3.37;72.21
48622;BME280;34421;48.944;9.460;2022-11-27T01:26:12;99675.81;;;3.34;72.97
48622;BME280;34421;48.944;9.460;2022-11-27T01:28:38;99678.44;;;3.34;72.47
48622;BME280;34421;48.944;9.460;2022-11-27T01:31:11;99675.94;;;3.33;72.78
48622;BME280;34421;48.944;9.460;2022-11-27T01:33:37;99671.38;;;3.35;73.31
48622;BME280;34421;48.944;9.460;2022-11-27T01:36:05;99671.25;;;3.36;73.34
48622;BME280;34421;48.944;9.460;2022-11-27T01:38:31;99681.78;;;3.36;72.63
48622;BME280;34421;48.944;9.460;2022-11-27T01:40:59;99673.03;;;3.36;72.89
48622;BME280;34421;48.944;9.460;2022-11-27T01:43:40;99667.91;;;3.34;73.05
48622;BME280;34421;48.944;9.460;2022-11-27T01:46:43;99666.25;;;3.33;72.54
48622;BME280;34421;48.944;9.460;2022-11-27T01:54:04;99649.34;;;3.36;73.12
48622;BME280;34421;48.944;9.460;2022-11-27T01:56:30;99646.72;;;3.36;72.89
48622;BME280;34421;48.944;9.460;2022-11-27T01:58:57;99638.13;;;3.34;73.54
48622;BME280;34421;48.944;9.460;2022-11-27T02:01:23;99639.63;;;3.27;73.44
48622;BME280;34421;48.944;9.460;2022-11-27T02:03:51;99635.44;;;3.24;73.47
48622;BME280;34421;48.944;9.460;2022-11-27T02:06:17;99628.25;;;3.26;73.66
48622;BME280;34421;48.944;9.460;2022-11-27T02:08:42;99633.81;;;3.23;72.60
48622;BME280;34421;48.944;9.460;2022-11-27T02:13:49;99635.59;;;3.13;74.02
48622;BME280;34421;48.944;9.460;2022-11-27T02:16:39;99628.50;;;3.04;73.38
48622;BME280;34421;48.944;9.460;2022-11-27T02:19:20;99624.19;;;3.03;74.02
48622;BME280;34421;48.944;9.460;2022-11-27T02:30:11;99611.25;;;2.80;74.48
48622;BME280;34421;48.944;9.460;2022-11-27T02:40:50;99618.06;;;2.92;73.86
48622;BME280;34421;48.944;9.460;2022-11-27T02:43:21;99628.03;;;2.89;74.58
48622;BME280;34421;48.944;9.460;2022-11-27T02:45:50;99619.28;;;2.88;74.26
48622;BME280;34421;48.944;9.460;2022-11-27T02:48:20;99617.09;;;2.93;74.68
48622;BME280;34421;48.944;9.460;2022-11-27T02:50:49;99625.25;;;2.90;74.35
48622;BME280;34421;48.944;9.460;2022-11-27T02:53:29;99622.63;;;2.90;74.54
48622;BME280;34421;48.944;9.460;2022-11-27T02:55:56;99620.00;;;2.90;74.48
48622;BME280;34421;48.944;9.460;2022-11-27T02:58:24;99616.81;;;2.87;74.90
48622;BME280;34421;48.944;9.460;2022-11-27T03:00:50;99621.78;;;2.90;74.64
48622;BME280;34421;48.944;9.460;2022-11-27T03:03:19;99611.53;;;2.87;74.59
48622;BME280;34421;48.944;9.460;2022-11-27T03:05:48;99614.16;;;2.87;74.31
48622;BME280;34421;48.944;9.460;2022-11-27T03:08:20;99612.38;;;2.87;73.85
48622;BME280;34421;48.944;9.460;2022-11-27T03:13:19;99602.41;;;2.91;73.86
48622;BME280;34421;48.944;9.460;2022-11-27T03:15:54;99607.81;;;2.89;74.40
48622;BME280;34421;48.944;9.460;2022-11-27T03:21:04;99591.06;;;2.90;73.75
48622;BME280;34421;48.944;9.460;2022-11-27T03:23:33;99606.00;;;2.90;74.43
48622;BME280;34421;48.944;9.460;2022-11-27T03:25:58;99610.41;;;2.80;73.38
48622;BME280;34421;48.944;9.460;2022-11-27T03:28:24;99607.06;;;2.78;73.69
48622;BME280;34421;48.944;9.460;2022-11-27T03:30:49;99611.25;;;2.80;73.92
48622;BME280;34421;48.944;9.460;2022-11-27T03:33:16;99607.63;;;2.81;74.66
48622;BME280;34421;48.944;9.460;2022-11-27T03:35:42;99602.94;;;2.85;73.93
48622;BME280;34421;48.944;9.460;2022-11-27T03:38:07;99591.47;;;2.86;74.33
48622;BME280;34421;48.944;9.460;2022-11-27T03:40:52;99600.03;;;2.88;74.16
48622;BME280;34421;48.944;9.460;2022-11-27T03:43:23;99596.59;;;2.87;74.62
48622;BME280;34421;48.944;9.460;2022-11-27T03:48:32;99594.09;;;2.86;74.14
48622;BME280;34421;48.944;9.460;2022-11-27T03:51:40;99598.25;;;2.88;73.41
48622;BME280;34421;48.944;9.460;2022-11-27T03:56:41;99594.50;;;2.81;73.44
48622;BME280;34421;48.944;9.460;2022-11-27T03:59:25;99608.16;;;2.75;73.35
48622;BME280;34421;48.944;9.460;2022-11-27T04:01:51;99600.13;;;2.77;73.73
48622;BME280;34421;48.944;9.460;2022-11-27T04:04:17;99598.47;;;2.76;73.51
48622;BME280;34421;48.944;9.460;2022-11-27T04:06:42;99594.31;;;2.73;73.51
48622;BME280;34421;48.944;9.460;2022-11-27T04:09:07;99590.03;;;2.72;74.36
48622;BME280;34421;48.944;9.460;2022-11-27T04:11:33;99584.06;;;2.70;73.76
48622;BME280;34421;48.944;9.460;2022-11-27T04:13:58;99571.63;;;2.72;74.84
48622;BME280;34421;48.944;9.460;2022-11-27T04:16:23;99569.00;;;2.72;74.54
48622;BME280;34421;48.944;9.460;2022-11-27T04:18:48;99582.41;;;2.69;74.41
48622;BME280;34421;48.944;9.460;2022-11-27T04:21:14;99583.38;;;2.68;74.15
48622;BME280;34421;48.944;9.460;2022-11-27T04:23:41;99582.41;;;2.69;74.42
48622;BME280;34421;48.944;9.460;2022-11-27T04:26:06;99584.31;;;2.67;74.11
48622;BME280;34421;48.944;9.460;2022-11-27T04:28:31;99589.16;;;2.62;73.99
48622;BME280;34421;48.944;9.460;2022-11-27T04:30:57;99587.47;;;2.61;73.50
48622;BME280;34421;48.944;9.460;2022-11-27T04:33:23;99596.09;;;2.63;74.32
48622;BME280;34421;48.944;9.460;2022-11-27T04:35:51;99593.44;;;2.63;73.86
48622;BME280;34421;48.944;9.460;2022-11-27T04:38:18;99590.81;;;2.63;74.19
48622;BME280;34421;48.944;9.460;2022-11-27T04:40:44;99577.78;;;2.61;73.98
48622;BME280;34421;48.944;9.460;2022-11-27T04:43:09;99579.59;;;2.61;73.63
48622;BME280;34421;48.944;9.460;2022-11-27T04:45:34;99568.38;;;2.59;73.69
48622;BME280;34421;48.944;9.460;2022-11-27T04:48:00;99570.84;;;2.50;73.07
48622;BME280;34421;48.944;9.460;2022-11-27T04:50:26;99565.84;;;2.47;72.96
48622;BME280;34421;48.944;9.460;2022-11-27T04:52:51;99565.97;;;2.46;73.96
48622;BME280;34421;48.944;9.460;2022-11-27T04:55:16;99562.63;;;2.44;73.43
48622;BME280;34421;48.944;9.460;2022-11-27T04:57:42;99559.31;;;2.42;73.46
48622;BME280;34421;48.944;9.460;2022-11-27T05:00:07;99550.88;;;2.38;73.60
48622;BME280;34421;48.944;9.460;2022-11-27T05:02:33;99555.41;;;2.36;73.32
48622;BME280;34421;48.944;9.460;2022-11-27T05:04:58;99551.13;;;2.35;73.03
48622;BME280;34421;48.944;9.460;2022-11-27T05:07:24;99563.69;;;2.32;72.85
48622;BME280;34421;48.944;9.460;2022-11-27T05:09:49;99563.13;;;2.28;72.92
48622;BME280;34421;48.944;9.460;2022-11-27T05:12:15;99562.81;;;2.21;73.03
48622;BME280;34421;48.944;9.460;2022-11-27T05:14:40;99562.38;;;2.16;72.94
48622;BME280;34421;48.944;9.460;2022-11-27T05:17:05;99551.19;;;2.14;72.69
48622;BME280;34421;48.944;9.460;2022-11-27T05:19:31;99545.78;;;2.16;72.74
48622;BME280;34421;48.944;9.460;2022-11-27T05:21:57;99544.13;;;2.15;72.51
48622;BME280;34421;48.944;9.460;2022-11-27T05:24:25;99538.28;;;2.11;72.70
48622;BME280;34421;48.944;9.460;2022-11-27T05:26:51;99542.84;;;2.09;72.28
48622;BME280;34421;48.944;9.460;2022-11-27T05:29:17;99542.97;;;2.08;73.16
48622;BME280;34421;48.944;9.460;2022-11-27T05:31:43;99537.97;;;2.04;72.10
48622;BME280;34421;48.944;9.460;2022-11-27T05:34:09;99532.84;;;2.03;72.37
48622;BME280;34421;48.944;9.460;2022-11-27T05:36:34;99530.91;;;2.05;72.40
48622;BME280;34421;48.944;9.460;2022-11-27T05:39:01;99525.28;;;2.10;72.32
48622;BME280;34421;48.944;9.460;2022-11-27T05:41:26;99524.31;;;2.11;72.57
48622;BME280;34421;48.944;9.460;2022-11-27T05:43:51;99525.72;;;2.15;72.38
48622;BME280;34421;48.944;9.460;2022-11-27T05:46:19;99524.03;;;2.14;72.20
48622;BME280;34421;48.944;9.460;2022-11-27T05:48:45;99528.34;;;2.15;72.12
48622;BME280;34421;48.944;9.460;2022-11-27T05:51:10;99523.94;;;2.15;72.10
48622;BME280;34421;48.944;9.460;2022-11-27T05:53:35;99524.03;;;2.14;72.23
48622;BME280;34421;48.944;9.460;2022-11-27T05:56:02;99522.38;;;2.13;72.85
48622;BME280;34421;48.944;9.460;2022-11-27T05:58:28;99524.03;;;2.14;72.33
48622;BME280;34421;48.944;9.460;2022-11-27T06:00:53;99523.47;;;2.10;73.00
48622;BME280;34421;48.944;9.460;2022-11-27T06:03:19;99527.75;;;2.11;73.28
48622;BME280;34421;48.944;9.460;2022-11-27T06:05:44;99529.44;;;2.12;72.96
48622;BME280;34421;48.944;9.460;2022-11-27T06:08:09;99523.22;;;2.13;72.80
48622;BME280;34421;48.944;9.460;2022-11-27T06:10:37;99524.31;;;2.11;72.86
48622;BME280;34421;48.944;9.460;2022-11-27T06:13:03;99530.53;;;2.10;72.92
48622;BME280;34421;48.944;9.460;2022-11-27T06:15:28;99527.06;;;2.09;73.22
48622;BME280;34421;48.944;9.460;2022-11-27T06:17:53;99528.88;;;2.09;73.16
48622;BME280;34421;48.944;9.460;2022-11-27T06:20:19;99531.34;;;2.10;73.24
48622;BME280;34421;48.944;9.460;2022-11-27T06:22:44;99529.72;;;2.09;73.06
48622;BME280;34421;48.944;9.460;2022-11-27T06:25:09;99529.81;;;2.08;72.52
48622;BME280;34421;48.944;9.460;2022-11-27T06:27:35;99526.38;;;2.07;72.95
48622;BME280;34421;48.944;9.460;2022-11-27T06:30:02;99527.44;;;2.04;73.02
48622;BME280;34421;48.944;9.460;2022-11-27T06:32:29;99529.66;;;1.99;72.82
48622;BME280;34421;48.944;9.460;2022-11-27T06:34:54;99524.25;;;2.01;72.81
48622;BME280;34421;48.944;9.460;2022-11-27T06:37:19;99533.13;;;2.00;72.51
48622;BME280;34421;48.944;9.460;2022-11-27T06:39:47;99532.97;;;2.01;72.99
48622;BME280;34421;48.944;9.460;2022-11-27T06:42:12;99537.41;;;2.01;72.79
48622;BME280;34421;48.944;9.460;2022-11-27T06:44:37;99542.78;;;1.99;72.50
48622;BME280;34421;48.944;9.460;2022-11-27T06:47:03;99549.13;;;1.97;72.32
48622;BME280;34421;48.944;9.460;2022-11-27T06:49:28;99545.78;;;1.95;72.35
48622;BME280;34421;48.944;9.460;2022-11-27T06:51:53;99546.06;;;1.92;72.55
48622;BME280;34421;48.944;9.460;2022-11-27T06:54:19;99546.06;;;1.92;72.01
48622;BME280;34421;48.944;9.460;2022-11-27T06:56:44;99540.66;;;1.93;72.29
48622;BME280;34421;48.944;9.460;2022-11-27T06:59:11;99530.88;;;1.95;72.10
48622;BME280;34421;48.944;9.460;2022-11-27T07:01:40;99541.63;;;1.92;71.96
48622;BME280;34421;48.944;9.460;2022-11-27T07:04:08;99527.78;;;1.90;72.13
48622;BME280;34421;48.944;9.460;2022-11-27T07:06:34;99527.34;;;1.85;71.97
48622;BME280;34421;48.944;9.460;2022-11-27T07:08:59;99525.56;;;1.86;71.70
48622;BME280;34421;48.944;9.460;2022-11-27T07:11:27;99527.22;;;1.87;71.80
48622;BME280;34421;48.944;9.460;2022-11-27T07:13:54;99535.25;;;1.85;71.04
48622;BME280;34421;48.944;9.460;2022-11-27T07:16:20;99531.91;;;1.83;71.32
48622;BME280;34421;48.944;9.460;2022-11-27T07:18:47;99536.31;;;1.82;71.34
48622;BME280;34421;48.944;9.460;2022-11-27T07:21:13;99519.47;;;1.85;71.40
48622;BME280;34421;48.944;9.460;2022-11-27T07:23:39;99520.31;;;1.86;71.30
48622;BME280;34421;48.944;9.460;2022-11-27T07:26:10;99523.66;;;1.88;71.40
48622;BME280;34421;48.944;9.460;2022-11-27T07:28:35;99517.53;;;1.87;71.56
48622;BME280;34421;48.944;9.460;2022-11-27T07:31:01;99519.22;;;1.88;71.68
48622;BME280;34421;48.944;9.460;2022-11-27T07:33:27;99519.78;;;1.92;71.28
48622;BME280;34421;48.944;9.460;2022-11-27T07:36:01;99511.53;;;1.96;71.80
48622;BME280;34421;48.944;9.460;2022-11-27T07:38:27;99506.69;;;2.01;71.45
48622;BME280;34421;48.944;9.460;2022-11-27T07:40:52;99494.13;;;2.05;71.39
48622;BME280;34421;48.944;9.460;2022-11-27T07:43:18;99491.38;;;2.07;71.36
48622;BME280;34421;48.944;9.460;2022-11-27T07:45:43;99481.72;;;2.07;71.54
48622;BME280;34421;48.944;9.460;2022-11-27T07:48:08;99473.81;;;2.07;71.54
48622;BME280;34421;48.944;9.460;2022-11-27T07:50:33;99480.63;;;2.10;71.32
48622;BME280;34421;48.944;9.460;2022-11-27T07:52:59;99478.69;;;2.12;71.11
48622;BME280;34421;48.944;9.460;2022-11-27T07:55:24;99476.47;;;2.17;71.38
48622;BME280;34421;48.944;9.460;2022-11-27T07:57:50;99479.72;;;2.20;70.88
48622;BME280;34421;48.944;9.460;2022-11-27T08:00:15;99472.50;;;2.22;71.16
48622;BME280;34421;48.944;9.460;2022-11-27T08:02:41;99460.50;;;2.30;71.76
48622;BME280;34421;48.944;9.460;2022-11-27T08:05:06;99464.69;;;2.32;71.71
48622;BME280;34421;48.944;9.460;2022-11-27T08:07:32;99470.06;;;2.40;71.14
48622;BME280;34421;48.944;9.460;2022-11-27T08:09:57;99465.25;;;2.45;71.32
48622;BME280;34421;48.944;9.460;2022-11-27T08:12:23;99475.50;;;2.48;71.70
48622;BME280;34421;48.944;9.460;2022-11-27T08:14:49;99465.53;;;2.52;71.44
48622;BME280;34421;48.944;9.460;2022-11-27T08:17:14;99464.19;;;2.58;71.47
48622;BME280;34421;48.944;9.460;2022-11-27T08:19:40;99456.72;;;2.63;72.09
48622;BME280;34421;48.944;9.460;2022-11-27T08:22:10;99458.81;;;2.69;71.40
48622;BME280;34421;48.944;9.460;2022-11-27T08:24:36;99456.03;;;2.70;72.28
48622;BME280;34421;48.944;9.460;2022-11-27T08:27:02;99460.06;;;2.74;72.14
48622;BME280;34421;48.944;9.460;2022-11-27T08:29:28;99453.72;;;2.77;71.84
48622;BME280;34421;48.944;9.460;2022-11-27T08:31:53;99440.28;;;2.80;72.39
48622;BME280;34421;48.944;9.460;2022-11-27T08:34:18;99429.88;;;2.79;72.47
48622;BME280;34421;48.944;9.460;2022-11-27T08:36:43;99426.16;;;2.81;72.01
48622;BME280;34421;48.944;9.460;2022-11-27T08:39:09;99433.50;;;2.87;72.55
48622;BME280;34421;48.944;9.460;2022-11-27T08:41:34;99428.66;;;2.92;72.57
48622;BME280;34421;48.944;9.460;2022-11-27T08:44:00;99427.13;;;3.00;72.91
48622;BME280;34421;48.944;9.460;2022-11-27T08:46:26;99430.19;;;3.05;73.05
48622;BME280;34421;48.944;9.460;2022-11-27T08:48:52;99429.63;;;3.11;72.25
48622;BME280;34421;48.944;9.460;2022-11-27T08:51:17;99417.84;;;3.15;72.94
48622;BME280;34421;48.944;9.460;2022-11-27T08:53:42;99418.25;;;3.20;73.01
48622;BME280;34421;48.944;9.460;2022-11-27T08:56:14;99416.88;;;3.26;72.73
48622;BME280;34421;48.944;9.460;2022-11-27T08:58:40;99417.00;;;3.34;71.75
48622;BME280;34421;48.944;9.460;2022-11-27T09:01:07;99406.88;;;3.39;73.43
48622;BME280;34421;48.944;9.460;2022-11-27T09:03:33;99419.50;;;3.45;72.37
48622;BME280;34421;48.944;9.460;2022-11-27T09:05:58;99421.56;;;3.51;73.53
48622;BME280;34421;48.944;9.460;2022-11-27T09:08:23;99412.78;;;3.60;73.10
48622;BME280;34421;48.944;9.460;2022-11-27T09:10:49;99414.56;;;3.70;73.06
48622;BME280;34421;48.944;9.460;2022-11-27T09:13:14;99400.66;;;3.77;73.25
48622;BME280;34421;48.944;9.460;2022-11-27T09:15:39;99393.69;;;3.86;73.48
48622;BME280;34421;48.944;9.460;2022-11-27T09:18:05;99396.63;;;3.93;73.13
48622;BME280;34421;48.944;9.460;2022-11-27T09:20:30;99392.53;;;3.98;74.25
48622;BME280;34421;48.944;9.460;2022-11-27T09:22:55;99400.84;;;4.03;74.49
48622;BME280;34421;48.944;9.460;2022-11-27T09:25:20;99410.13;;;4.07;73.37
48622;BME280;34421;48.944;9.460;2022-11-27T09:27:46;99411.03;;;4.16;73.53
48622;BME280;34421;48.944;9.460;2022-11-27T09:30:11;99413.38;;;4.19;74.07
48622;BME280;34421;48.944;9.460;2022-11-27T09:32:37;99407.41;;;4.27;73.42
48622;BME280;34421;48.944;9.460;2022-11-27T09:35:02;99400.41;;;4.36;73.41
48622;BME280;34421;48.944;9.460;2022-11-27T09:37:28;99399.53;;;4.45;74.50
48622;BME280;34421;48.944;9.460;2022-11-27T09:39:53;99398.63;;;4.54;74.62
48622;BME280;34421;48.944;9.460;2022-11-27T09:42:38;99390.81;;;4.62;74.98
48622;BME280;34421;48.944;9.460;2022-11-27T09:45:07;99382.00;;;4.71;74.14
48622;BME280;34421;48.944;9.460;2022-11-27T09:47:55;99372.34;;;4.80;74.74
48622;BME280;34421;48.944;9.460;2022-11-27T09:50:32;99363.66;;;4.88;75.00
48622;BME280;34421;48.944;9.460;2022-11-27T09:53:10;99369.19;;;4.94;75.49
48622;BME280;34421;48.944;9.460;2022-11-27T09:55:45;99375.34;;;5.03;75.63
48622;BME280;34421;48.944;9.460;2022-11-27T09:58:22;99375.56;;;5.10;75.66
48622;BME280;34421;48.944;9.460;2022-11-27T10:00:53;99365.69;;;5.12;75.55
48622;BME280;34421;48.944;9.460;2022-11-27T10:03:26;99341.63;;;5.15;77.09
48622;BME280;34421;48.944;9.460;2022-11-27T10:11:33;99359.94;;;5.42;76.68
48622;BME280;34421;48.944;9.460;2022-11-27T10:14:24;99352.53;;;5.46;76.41
48622;BME280;34421;48.944;9.460;2022-11-27T10:21:55;99335.00;;;5.71;76.43
48622;BME280;34421;48.944;9.460;2022-11-27T10:27:31;99313.78;;;5.89;76.47
48622;BME280;34421;48.944;9.460;2022-11-27T10:30:08;99315.50;;;5.98;75.99
48622;BME280;34421;48.944;9.460;2022-11-27T10:32:37;99318.16;;;6.06;76.50
48622;BME280;34421;48.944;9.460;2022-11-27T10:35:12;99316.38;;;6.15;76.86
48622;BME280;34421;48.944;9.460;2022-11-27T10:40:27;99303.03;;;6.33;76.49
48622;BME280;34421;48.944;9.460;2022-11-27T10:43:09;99291.63;;;6.41;76.77
48622;BME280;34421;48.944;9.460;2022-11-27T10:45:41;99288.50;;;6.53;76.18
48622;BME280;34421;48.944;9.460;2022-11-27T10:48:09;99285.88;;;6.61;75.62
48622;BME280;34421;48.944;9.460;2022-11-27T10:50:35;99287.66;;;6.69;75.38
48622;BME280;34421;48.944;9.460;2022-11-27T10:53:09;99293.78;;;6.78;75.91
48622;BME280;34421;48.944;9.460;2022-11-27T11:01:17;99278.22;;;7.07;74.75
48622;BME280;34421;48.944;9.460;2022-11-27T11:03:43;99274.41;;;7.18;74.33
48622;BME280;34421;48.944;9.460;2022-11-27T11:06:21;99268.91;;;7.28;73.98
48622;BME280;34421;48.944;9.460;2022-11-27T11:08:58;99272.22;;;7.38;73.41
48622;BME280;34421;48.944;9.460;2022-11-27T11:11:25;99261.56;;;7.46;72.69
48622;BME280;34421;48.944;9.460;2022-11-27T11:13:51;99246.13;;;7.58;72.78
48622;BME280;34421;48.944;9.460;2022-11-27T11:16:20;99246.75;;;7.68;72.14
48622;BME280;34421;48.944;9.460;2022-11-27T11:18:53;99240.88;;;7.81;71.72
48622;BME280;34421;48.944;9.460;2022-11-27T11:21:28;99241.50;;;7.91;71.09
48622;BME280;34421;48.944;9.460;2022-11-27T11:24:13;99234.31;;;8.00;70.78
48622;BME280;34421;48.944;9.460;2022-11-27T11:26:45;99216.44;;;7.94;70.18
48622;BME280;34421;48.944;9.460;2022-11-27T11:29:35;99200.38;;;7.95;70.28
48622;BME280;34421;48.944;9.460;2022-11-27T11:32:13;99202.16;;;8.03;69.55
48622;BME280;34421;48.944;9.460;2022-11-27T11:34:50;99203.81;;;8.04;68.84
48622;BME280;34421;48.944;9.460;2022-11-27T11:39:44;99186.00;;;8.13;67.54
48622;BME280;34421;48.944;9.460;2022-11-27T11:42:21;99186.31;;;8.18;67.37
48622;BME280;34421;48.944;9.460;2022-11-27T11:47:43;99171.97;;;8.27;66.25
48622;BME280;34421;48.944;9.460;2022-11-27T11:50:11;99178.56;;;8.31;65.55
48622;BME280;34421;48.944;9.460;2022-11-27T12:00:27;99159.16;;;8.54;64.29
48622;BME280;34421;48.944;9.460;2022-11-27T12:16:25;99136.22;;;8.90;61.52
48622;BME280;34421;48.944;9.460;2022-11-27T12:24:51;99133.63;;;9.12;60.47
48622;BME280;34421;48.944;9.460;2022-11-27T12:27:47;99127.78;;;9.17;60.60
48622;BME280;34421;48.944;9.460;2022-11-27T12:30:18;99128.50;;;9.25;59.72
48622;BME280;34421;48.944;9.460;2022-11-27T12:32:54;99121.59;;;9.31;59.66
48622;BME280;34421;48.944;9.460;2022-11-27T12:35:30;99111.06;;;9.38;59.98
48622;BME280;34421;48.944;9.460;2022-11-27T12:38:17;99117.09;;;9.46;58.80
48622;BME280;34421;48.944;9.460;2022-11-27T12:43:35;99114.56;;;9.59;58.34
48622;BME280;34421;48.944;9.460;2022-11-27T12:46:22;99111.00;;;9.67;58.62
48622;BME280;34421;48.944;9.460;2022-11-27T12:52:06;99093.47;;;9.73;56.18
48622;BME280;34421;48.944;9.460;2022-11-27T12:57:12;99086.63;;;9.85;56.32
48622;BME280;34421;48.944;9.460;2022-11-27T12:59:53;99077.66;;;9.93;56.19
48622;BME280;34421;48.944;9.460;2022-11-27T13:04:55;99068.84;;;10.14;55.79
48622;BME280;34421;48.944;9.460;2022-11-27T13:07:36;99074.09;;;10.29;55.63
48622;BME280;34421;48.944;9.460;2022-11-27T13:10:31;99068.28;;;10.46;55.12
48622;BME280;34421;48.944;9.460;2022-11-27T13:13:03;99070.03;;;10.67;53.96
48622;BME280;34421;48.944;9.460;2022-11-27T13:15:34;99067.66;;;10.79;54.13
48622;BME280;34421;48.944;9.460;2022-11-27T13:18:10;99064.31;;;11.12;52.79
48622;BME280;34421;48.944;9.460;2022-11-27T13:20:39;99064.81;;;11.42;53.09
48622;BME280;34421;48.944;9.460;2022-11-27T13:23:05;99060.81;;;11.66;52.34
48622;BME280;34421;48.944;9.460;2022-11-27T13:25:33;99052.81;;;11.79;52.11
48622;BME280;34421;48.944;9.460;2022-11-27T13:28:01;99056.50;;;11.78;52.27
48622;BME280;34421;48.944;9.460;2022-11-27T13:30:31;99043.34;;;11.83;52.03
48622;BME280;34421;48.944;9.460;2022-11-27T13:32:58;99037.19;;;11.83;51.57
48622;BME280;34421;48.944;9.460;2022-11-27T13:35:39;99033.31;;;11.79;51.67
48622;BME280;34421;48.944;9.460;2022-11-27T13:38:12;99029.38;;;11.75;51.69
48622;BME280;34421;48.944;9.460;2022-11-27T13:40:41;99029.38;;;11.75;52.00
48622;BME280;34421;48.944;9.460;2022-11-27T13:43:38;99033.31;;;11.72;51.75
48622;BME280;34421;48.944;9.460;2022-11-27T13:46:07;99032.28;;;11.67;51.61
48622;BME280;34421;48.944;9.460;2022-11-27T13:48:37;99026.09;;;11.59;51.83
48622;BME280;34421;48.944;9.460;2022-11-27T13:51:05;99034.91;;;11.53;52.36
48622;BME280;34421;48.944;9.460;2022-11-27T13:53:40;99023.81;;;11.43;51.13
48622;BME280;34421;48.944;9.460;2022-11-27T13:56:07;99036.91;;;11.31;51.13
48622;BME280;34421;48.944;9.460;2022-11-27T14:01:19;99025.19;;;11.12;51.62
48622;BME280;34421;48.944;9.460;2022-11-27T14:03:47;99021.03;;;11.03;50.64
48622;BME280;34421;48.944;9.460;2022-11-27T14:08:48;99014.03;;;10.89;50.66
48622;BME280;34421;48.944;9.460;2022-11-27T14:11:15;99009.91;;;10.80;51.73
48622;BME280;34421;48.944;9.460;2022-11-27T14:13:47;99005.34;;;10.73;50.49
48622;BME280;34421;48.944;9.460;2022-11-27T14:16:29;99010.47;;;10.68;51.16
48622;BME280;34421;48.944;9.460;2022-11-27T14:19:00;99009.41;;;10.63;52.20
48622;BME280;34421;48.944;9.460;2022-11-27T14:21:38;99018.38;;;10.55;51.15
48622;BME280;34421;48.944;9.460;2022-11-27T14:26:50;99009.69;;;10.40;51.98
48622;BME280;34421;48.944;9.460;2022-11-27T14:29:19;99011.91;;;10.36;52.84
48622;BME280;34421;48.944;9.460;2022-11-27T14:31:44;99010.03;;;10.30;52.21
48622;BME280;34421;48.944;9.460;2022-11-27T14:34:29;98999.94;;;10.25;53.50
48622;BME280;34421;48.944;9.460;2022-11-27T14:36:56;98996.03;;;10.21;53.25
48622;BME280;34421;48.944;9.460;2022-11-27T14:39:30;98991.09;;;10.18;53.96
48622;BME280;34421;48.944;9.460;2022-11-27T14:44:25;98982.63;;;10.08;53.34
48622;BME280;34421;48.944;9.460;2022-11-27T14:46:51;98971.75;;;10.03;53.85
48622;BME280;34421;48.944;9.460;2022-11-27T14:49:27;98982.78;;;10.00;54.03
48622;BME280;34421;48.944;9.460;2022-11-27T14:51:57;98971.28;;;9.93;53.65
48622;BME280;34421;48.944;9.460;2022-11-27T14:54:29;98965.09;;;9.86;53.40
48622;BME280;34421;48.944;9.460;2022-11-27T14:56:56;98965.88;;;9.79;52.83
48622;BME280;34421;48.944;9.460;2022-11-27T14:59:23;98960.28;;;9.74;52.38
48622;BME280;34421;48.944;9.460;2022-11-27T15:04:37;98937.47;;;9.58;52.31
48622;BME280;34421;48.944;9.460;2022-11-27T15:07:04;98937.44;;;9.52;52.91
48622;BME280;34421;48.944;9.460;2022-11-27T15:09:31;98934.91;;;9.44;51.90
48622;BME280;34421;48.944;9.460;2022-11-27T15:12:05;98914.59;;;9.36;52.53